Horseshoe Lake, Arkansas
Current Conditions -  °F | °C
As of 12:53 PM on Thursday 23 Oct 2014 (Local Time) from KAWM Reporting Station
Clear Clear  
Wind Chill: 62°   Ceiling: Unl
Heat Index: 62°   Visibility: 10mi
Dew Point: 43°   Wind: 5mph
Humidity: 50%   Direction: NA
Pressure: 30.18"   Gusts: NA
Location:  34.9503°N, 90.5078°W
Report Text: KAWM 231753Z AUTO VRB04KT 10SM CLR 17/06 A3018 RMK AO2 SLP218 T01670061 10172 20050 58010
Loading
Personal Weather Stations






























Interactive Weather Map
Tropical Storm Tracking
New forecast layout! Learn more

10-Day Weather Forecast

Advertisements
Track Severe Weather on mobile